createdAt,value
2019-04-10T00:00:12.649Z,72.30
2019-04-10T00:02:43.882Z,72.10
2019-04-10T00:05:14.166Z,72.20
2019-04-10T00:07:46.601Z,72.30
2019-04-10T00:10:17.171Z,71.90
2019-04-10T00:12:48.571Z,71.70
2019-04-10T00:15:19.816Z,71.90
2019-04-10T00:17:51.431Z,72.20
2019-04-10T00:20:22.812Z,72.10
2019-04-10T00:23:11.798Z,71.70
2019-04-10T00:25:45.365Z,71.90
2019-04-10T00:28:19.706Z,72.10
2019-04-10T00:30:49.644Z,72.00
2019-04-10T00:33:20.712Z,72.00
2019-04-10T00:35:52.293Z,72.00
2019-04-10T00:38:22.414Z,71.70
2019-04-10T00:40:55.576Z,71.80
2019-04-10T00:43:26.750Z,71.90
2019-04-10T00:45:57.772Z,72.10
2019-04-10T00:48:30.130Z,72.10
2019-04-10T00:51:04.066Z,71.50
2019-04-10T00:53:33.367Z,71.50
2019-04-10T00:56:04.711Z,71.40
2019-04-10T00:58:35.816Z,71.40
2019-04-10T01:01:09.632Z,71.30
2019-04-10T01:03:49.032Z,71.60
2019-04-10T01:06:19.933Z,71.50
2019-04-10T01:08:51.589Z,71.30
2019-04-10T01:11:21.609Z,71.60
2019-04-10T01:13:55.212Z,71.50
2019-04-10T01:16:27.193Z,71.60
2019-04-10T01:18:58.305Z,71.50
2019-04-10T01:21:30.708Z,71.50
2019-04-10T01:24:05.762Z,71.40
2019-04-10T01:26:40.265Z,70.90
2019-04-10T01:29:12.177Z,71.10
2019-04-10T01:31:45.560Z,70.70
2019-04-10T01:34:18.981Z,71.00
2019-04-10T01:36:52.312Z,70.70
2019-04-10T01:39:28.551Z,70.20
2019-04-10T01:41:58.595Z,70.70
2019-04-10T01:44:32.938Z,71.10
2019-04-10T01:47:04.757Z,70.00
2019-04-10T01:49:37.868Z,70.10
2019-04-10T01:52:09.338Z,70.60
2019-04-10T01:54:43.054Z,70.60
2019-04-10T01:57:32.559Z,70.00
2019-04-10T02:00:06.795Z,70.30
2019-04-10T02:02:39.155Z,70.10
2019-04-10T02:05:12.459Z,69.40
2019-04-10T02:07:44.459Z,69.90
2019-04-10T02:10:17.021Z,70.40
2019-04-10T02:12:48.671Z,70.20
2019-04-10T02:15:19.682Z,69.90
2019-04-10T02:17:52.937Z,69.60
2019-04-10T02:20:27.142Z,69.60
2019-04-10T02:22:59.827Z,69.90
2019-04-10T02:25:30.956Z,69.80
2019-04-10T02:28:02.797Z,69.40
2019-04-10T02:30:36.883Z,70.00
2019-04-10T02:33:08.184Z,70.00
2019-04-10T02:35:40.076Z,69.80
2019-04-10T02:38:31.846Z,69.30
2019-04-10T02:40:47.508Z,69.80
2019-04-10T02:43:21.115Z,69.80
2019-04-10T02:45:52.385Z,69.60
2019-04-10T02:48:23.463Z,69.50
2019-04-10T02:50:55.610Z,69.60
2019-04-10T02:53:29.539Z,70.00
2019-04-10T02:56:00.815Z,69.20
2019-04-10T02:58:32.244Z,69.60
2019-04-10T03:01:03.697Z,69.80
2019-04-10T03:03:36.122Z,70.00
2019-04-10T03:06:07.398Z,69.60
2019-04-10T03:08:54.943Z,69.90
2019-04-10T03:11:16.940Z,69.60
2019-04-10T03:13:49.082Z,69.90
2019-04-10T03:16:20.250Z,69.90
2019-04-10T03:18:51.601Z,69.70
2019-04-10T03:21:24.284Z,69.90
2019-04-10T03:23:55.970Z,69.90
2019-04-10T03:26:29.793Z,69.90
2019-04-10T03:29:03.164Z,69.80
2019-04-10T03:31:34.549Z,69.60
2019-04-10T03:34:21.615Z,70.00
2019-04-10T03:36:51.812Z,69.50
2019-04-10T03:39:21.781Z,70.00
2019-04-10T03:41:54.629Z,69.90
2019-04-10T03:44:28.867Z,69.60
2019-04-10T03:47:03.988Z,69.90
2019-04-10T03:49:36.113Z,70.00
2019-04-10T03:52:10.060Z,69.80
2019-04-10T03:54:46.078Z,70.40
2019-04-10T03:57:18.404Z,70.30
2019-04-10T03:59:49.728Z,70.10
2019-04-10T04:02:24.686Z,70.10
2019-04-10T04:04:55.955Z,70.00
2019-04-10T04:07:27.570Z,70.20
2019-04-10T04:10:00.181Z,69.90
2019-04-10T04:12:31.348Z,70.40
2019-04-10T04:15:03.591Z,70.30
2019-04-10T04:17:55.608Z,70.30
2019-04-10T04:20:28.658Z,70.00
2019-04-10T04:23:01.376Z,70.10
2019-04-10T04:25:33.160Z,70.40
2019-04-10T04:28:11.405Z,70.40
2019-04-10T04:30:46.418Z,70.30
2019-04-10T04:33:17.061Z,70.50
2019-04-10T04:35:48.579Z,70.30
2019-04-10T04:38:21.181Z,70.10
2019-04-10T04:40:52.843Z,70.00
2019-04-10T04:43:23.344Z,70.00
2019-04-10T04:45:59.061Z,70.00
2019-04-10T04:48:31.931Z,70.20
2019-04-10T04:51:03.302Z,70.30
2019-04-10T04:53:34.509Z,70.00
2019-04-10T04:56:05.744Z,70.10
2019-04-10T04:58:38.766Z,70.20
2019-04-10T05:01:10.581Z,70.70
2019-04-10T05:03:42.124Z,70.30
2019-04-10T05:06:16.658Z,69.60
2019-04-10T05:08:51.233Z,70.20
2019-04-10T05:11:25.086Z,69.80
2019-04-10T05:13:59.285Z,70.30
2019-04-10T05:16:31.028Z,70.10
2019-04-10T05:21:54.003Z,69.70
2019-04-10T05:24:27.992Z,69.00
2019-04-10T05:27:01.279Z,69.60
2019-04-10T05:29:32.611Z,69.80
2019-04-10T05:32:07.312Z,69.50
2019-04-10T05:34:43.346Z,69.80
2019-04-10T05:39:50.611Z,69.40
2019-04-10T05:42:18.207Z,68.60
2019-04-10T05:44:47.931Z,68.90
2019-04-10T05:47:21.863Z,68.70
2019-04-10T05:49:57.618Z,69.00
2019-04-10T05:52:31.885Z,68.10
2019-04-10T05:55:02.805Z,68.10
2019-04-10T05:57:34.927Z,68.60
2019-04-10T06:02:44.905Z,68.20
2019-04-10T06:05:20.191Z,68.00
2019-04-10T06:07:53.847Z,68.50
2019-04-10T06:10:27.904Z,67.80
2019-04-10T06:12:59.087Z,67.90
2019-04-10T06:15:30.685Z,68.30
2019-04-10T06:18:02.985Z,67.90
2019-04-10T06:20:37.608Z,68.00
2019-04-10T06:23:09.388Z,68.20
2019-04-10T06:25:43.470Z,68.00
2019-04-10T06:28:18.729Z,68.20
2019-04-10T06:30:52.330Z,68.10
2019-04-10T06:35:55.381Z,68.00
2019-04-10T06:38:31.745Z,67.50
2019-04-10T06:43:37.206Z,66.60
2019-04-10T06:46:12.323Z,67.50
2019-04-10T06:48:44.557Z,67.60
2019-04-10T06:51:20.248Z,67.70
2019-04-10T06:54:00.898Z,68.10
2019-04-10T06:56:27.838Z,67.40
2019-04-10T06:59:00.281Z,67.90
2019-04-10T07:01:40.618Z,67.80
2019-04-10T07:04:07.911Z,68.00
2019-04-10T07:09:15.816Z,67.20
2019-04-10T07:11:50.044Z,66.40
2019-04-10T07:14:22.592Z,66.70
2019-04-10T07:16:54.772Z,66.50
2019-04-10T07:19:37.035Z,66.90
2019-04-10T07:22:11.148Z,66.30
2019-04-10T07:24:42.571Z,65.90
2019-04-10T07:27:17.062Z,66.50
2019-04-10T07:29:52.335Z,66.50
2019-04-10T07:32:24.294Z,66.40
2019-04-10T07:34:58.254Z,65.90
2019-04-10T07:37:28.556Z,65.40
2019-04-10T07:40:03.326Z,65.30
2019-04-10T07:42:41.592Z,65.90
2019-04-10T07:45:13.045Z,65.40
2019-04-10T07:47:46.239Z,65.70
2019-04-10T07:50:18.614Z,65.60
2019-04-10T07:52:52.007Z,65.40
2019-04-10T07:58:17.283Z,65.10
2019-04-10T08:00:49.720Z,64.90
2019-04-10T08:03:23.281Z,65.30
2019-04-10T08:05:58.193Z,64.90
2019-04-10T08:08:31.978Z,65.20
2019-04-10T08:11:09.126Z,65.00
2019-04-10T08:16:19.590Z,64.40
2019-04-10T08:18:50.136Z,63.60
2019-04-10T08:21:23.925Z,63.40
2019-04-10T08:26:28.255Z,64.00
2019-04-10T08:29:01.749Z,63.30
2019-04-10T08:31:35.127Z,63.30
2019-04-10T08:36:37.500Z,62.80
2019-04-10T08:39:10.744Z,61.60
2019-04-10T08:41:43.815Z,62.60
2019-04-10T08:44:13.990Z,62.50
2019-04-10T08:46:46.786Z,62.30
2019-04-10T08:49:21.265Z,62.10
2019-04-10T08:51:53.971Z,61.60
2019-04-10T08:54:26.325Z,62.40
2019-04-10T08:56:56.802Z,62.30
2019-04-10T08:59:28.479Z,61.30
2019-04-10T09:02:00.009Z,61.30
2019-04-10T09:04:34.203Z,60.60
2019-04-10T09:07:08.279Z,61.00
2019-04-10T09:09:41.561Z,61.50
2019-04-10T09:12:13.592Z,62.30
2019-04-10T09:14:43.622Z,62.00
2019-04-10T09:17:15.371Z,61.00
2019-04-10T09:19:47.211Z,60.90
2019-04-10T09:27:53.905Z,59.40
2019-04-10T09:32:56.900Z,57.50
2019-04-10T09:35:28.991Z,58.00
2019-04-10T09:38:00.168Z,57.60
2019-04-10T09:40:32.080Z,58.30
2019-04-10T09:43:07.341Z,56.90
2019-04-10T09:45:39.768Z,56.50
2019-04-10T09:48:10.779Z,57.40
2019-04-10T09:50:41.753Z,56.30
2019-04-10T09:53:13.093Z,55.20
2019-04-10T09:55:44.765Z,55.20
2019-04-10T09:58:17.586Z,55.30
2019-04-10T10:00:50.594Z,54.90
2019-04-10T10:03:21.995Z,55.50
2019-04-10T10:08:26.586Z,56.90
2019-04-10T10:10:57.632Z,57.00
2019-04-10T10:13:31.788Z,57.40
2019-04-10T10:16:04.376Z,57.10
2019-04-10T10:18:37.328Z,57.20
2019-04-10T10:21:10.730Z,58.30
2019-04-10T10:23:43.666Z,57.20
2019-04-10T10:28:54.705Z,56.30
2019-04-10T10:31:28.451Z,57.50
2019-04-10T10:34:01.877Z,57.10
2019-04-10T10:36:40.772Z,56.70
2019-04-10T10:39:11.131Z,57.10
2019-04-10T10:41:40.529Z,57.50
2019-04-10T10:44:11.781Z,56.90
2019-04-10T10:46:44.028Z,57.10
2019-04-10T10:49:14.134Z,56.80
2019-04-10T10:51:45.513Z,57.10
2019-04-10T10:54:17.035Z,57.10
2019-04-10T10:56:46.947Z,56.50
2019-04-10T10:59:17.564Z,57.50
2019-04-10T11:01:51.929Z,56.00
2019-04-10T11:04:24.501Z,56.90
2019-04-10T11:07:00.933Z,56.20
2019-04-10T11:09:32.591Z,56.80
2019-04-10T11:12:04.710Z,56.00
2019-04-10T11:14:35.480Z,55.80
2019-04-10T11:17:07.528Z,55.70
2019-04-10T11:19:37.760Z,55.60
2019-04-10T11:22:09.254Z,55.00
2019-04-10T11:24:40.745Z,55.00
2019-04-10T11:27:15.961Z,53.20
2019-04-10T11:29:47.844Z,54.70
2019-04-10T11:32:19.970Z,55.70
2019-04-10T11:34:50.683Z,53.70
2019-04-10T11:37:31.836Z,53.90
2019-04-10T11:39:56.121Z,53.80
2019-04-10T11:42:28.983Z,53.40
2019-04-10T11:45:01.928Z,53.20
2019-04-10T11:47:35.413Z,53.40
2019-04-10T11:52:52.192Z,54.90
2019-04-10T11:55:24.478Z,54.40
2019-04-10T11:57:54.669Z,54.50
2019-04-10T12:00:50.395Z,54.50
2019-04-10T12:03:19.296Z,54.20
2019-04-10T12:05:51.794Z,55.20
2019-04-10T12:13:32.958Z,56.20
2019-04-10T12:16:07.142Z,55.40
2019-04-10T12:18:38.751Z,56.10
2019-04-10T12:21:11.508Z,56.60
2019-04-10T12:23:45.240Z,56.10
2019-04-10T12:26:17.923Z,56.60
2019-04-10T12:28:48.003Z,56.20
2019-04-10T12:31:21.841Z,57.00
2019-04-10T12:33:56.888Z,57.10
2019-04-10T12:36:29.562Z,56.30
2019-04-10T12:39:00.348Z,57.10
2019-04-10T12:41:31.649Z,56.70
2019-04-10T12:44:05.333Z,57.80
2019-04-10T12:46:39.445Z,57.50
2019-04-10T12:49:11.539Z,56.60
2019-04-10T12:51:43.660Z,57.50
2019-04-10T12:54:17.394Z,57.60
2019-04-10T12:56:47.011Z,57.70
2019-04-10T12:59:17.337Z,57.70
2019-04-10T13:04:21.225Z,58.20
2019-04-10T13:06:53.250Z,58.40
2019-04-10T13:09:29.997Z,58.00
2019-04-10T13:12:00.688Z,58.20
2019-04-10T13:14:32.841Z,58.80
2019-04-10T13:17:04.720Z,57.70
2019-04-10T13:19:35.691Z,58.50
2019-04-10T13:22:09.507Z,58.50
2019-04-10T13:24:39.869Z,58.50
2019-04-10T13:27:10.411Z,58.80
2019-04-10T13:29:44.634Z,58.50
2019-04-10T13:32:16.944Z,58.30
2019-04-10T13:34:49.517Z,58.80
2019-04-10T13:37:24.149Z,58.80
2019-04-10T13:42:54.111Z,59.50
2019-04-10T13:45:27.248Z,59.90
2019-04-10T13:47:58.825Z,60.00
2019-04-10T13:50:30.700Z,59.70
2019-04-10T13:53:01.595Z,59.50
2019-04-10T13:55:37.077Z,59.70
2019-04-10T14:00:45.136Z,60.80
2019-04-10T14:03:20.449Z,60.70
2019-04-10T14:05:54.854Z,60.60
2019-04-10T14:08:40.313Z,60.40
2019-04-10T14:11:03.051Z,60.60
2019-04-10T14:13:34.130Z,60.60
2019-04-10T14:16:06.473Z,60.50
2019-04-10T14:18:37.089Z,61.00
2019-04-10T14:21:12.902Z,61.30
2019-04-10T14:23:41.151Z,61.70
2019-04-10T14:26:24.503Z,61.60
2019-04-10T14:28:57.993Z,61.00
2019-04-10T14:31:32.798Z,61.20
2019-04-10T14:34:05.028Z,61.10
2019-04-10T14:36:38.879Z,61.10
2019-04-10T14:39:20.798Z,61.40
2019-04-10T14:41:53.893Z,61.70
2019-04-10T14:44:28.555Z,61.30
2019-04-10T14:49:58.156Z,61.40
2019-04-10T14:52:32.832Z,61.90
2019-04-10T14:55:08.216Z,62.00
2019-04-10T14:57:39.141Z,61.70
2019-04-10T15:00:13.045Z,61.70
2019-04-10T15:02:44.163Z,61.90
2019-04-10T15:05:17.523Z,62.40
2019-04-10T15:07:51.100Z,62.00
2019-04-10T15:10:22.166Z,61.30
2019-04-10T15:13:06.949Z,61.50
2019-04-10T15:15:29.114Z,61.10
2019-04-10T15:18:04.593Z,61.80
2019-04-10T15:20:37.607Z,61.80
2019-04-10T15:23:10.561Z,61.70
2019-04-10T15:25:45.644Z,61.20
2019-04-10T15:28:16.091Z,62.10
2019-04-10T15:30:47.885Z,61.00
2019-04-10T15:33:18.357Z,60.90
2019-04-10T15:35:48.578Z,60.80
2019-04-10T15:38:22.116Z,61.50
2019-04-10T15:43:47.698Z,60.70
2019-04-10T15:46:21.348Z,61.10
2019-04-10T15:48:55.095Z,60.70
2019-04-10T15:51:26.343Z,61.10
2019-04-10T15:53:59.262Z,60.60
2019-04-10T15:56:34.021Z,60.90
2019-04-10T15:59:06.024Z,60.70
2019-04-10T16:01:37.629Z,60.90
2019-04-10T16:04:08.623Z,61.20
2019-04-10T16:06:42.058Z,61.50
2019-04-10T16:09:15.091Z,61.30
2019-04-10T16:12:01.009Z,61.30
2019-04-10T16:14:32.957Z,61.80
2019-04-10T16:17:19.248Z,61.40
2019-04-10T16:22:56.748Z,61.60
2019-04-10T16:25:34.395Z,61.60
2019-04-10T16:28:04.331Z,61.60
2019-04-10T16:30:37.065Z,61.80
2019-04-10T16:33:07.401Z,62.00
2019-04-10T16:35:40.831Z,62.40
2019-04-10T16:38:12.064Z,62.00
2019-04-10T16:40:44.207Z,61.70
2019-04-10T16:43:16.030Z,61.90
2019-04-10T16:45:49.454Z,61.40
2019-04-10T16:48:19.689Z,61.50
2019-04-10T16:50:54.741Z,61.90
2019-04-10T16:53:27.931Z,62.30
2019-04-10T16:58:30.410Z,62.50
2019-04-10T17:01:04.277Z,62.40
2019-04-10T17:03:37.733Z,62.00
2019-04-10T17:06:08.489Z,62.70
2019-04-10T17:08:40.463Z,62.60
2019-04-10T17:11:12.518Z,62.50
2019-04-10T17:13:42.557Z,62.50
2019-04-10T17:16:15.651Z,62.30
2019-04-10T17:18:47.751Z,62.50
2019-04-10T17:21:30.556Z,62.30
2019-04-10T17:24:05.011Z,62.40
2019-04-10T17:26:39.175Z,62.40
2019-04-10T17:29:09.927Z,62.40
2019-04-10T17:31:44.276Z,62.50
2019-04-10T17:34:14.559Z,62.30
2019-04-10T17:36:47.334Z,62.70
2019-04-10T17:42:09.968Z,62.60
2019-04-10T17:44:45.546Z,63.30
2019-04-10T17:47:20.702Z,62.80
2019-04-10T17:49:51.830Z,63.20
2019-04-10T17:52:23.162Z,62.80
2019-04-10T17:54:55.468Z,63.00
2019-04-10T17:57:38.107Z,63.00
2019-04-10T18:00:03.370Z,62.90
2019-04-10T18:02:34.935Z,63.10
2019-04-10T18:05:06.575Z,63.20
2019-04-10T18:07:40.551Z,63.30
2019-04-10T18:10:11.938Z,63.40
2019-04-10T18:12:42.176Z,63.50
2019-04-10T18:15:13.527Z,63.50
2019-04-10T18:17:47.157Z,63.00
2019-04-10T18:22:56.951Z,63.50
2019-04-10T18:25:29.731Z,63.20
2019-04-10T18:28:01.201Z,63.40
2019-04-10T18:33:05.138Z,63.20
2019-04-10T18:35:36.693Z,63.20
2019-04-10T18:38:08.952Z,62.80
2019-04-10T18:40:58.610Z,63.50
2019-04-10T18:43:27.024Z,64.00
2019-04-10T18:46:09.047Z,63.50
2019-04-10T18:48:34.691Z,63.60
2019-04-10T18:51:07.888Z,63.70
2019-04-10T18:53:37.962Z,63.90
2019-04-10T18:56:08.902Z,63.60
2019-04-10T18:58:41.844Z,63.60
2019-04-10T19:01:31.649Z,63.70
2019-04-10T19:04:20.504Z,63.50
2019-04-10T19:06:56.781Z,63.60
2019-04-10T19:09:32.482Z,63.30
2019-04-10T19:12:05.348Z,63.50
2019-04-10T19:14:38.657Z,63.60
2019-04-10T19:17:12.864Z,63.70
2019-04-10T19:19:48.540Z,63.80
2019-04-10T19:22:20.380Z,63.90
2019-04-10T19:24:50.509Z,63.80
2019-04-10T19:27:22.734Z,63.50
2019-04-10T19:29:54.986Z,63.70
2019-04-10T19:35:19.911Z,63.60
2019-04-10T19:37:51.250Z,63.80
2019-04-10T19:40:23.545Z,63.70
2019-04-10T19:42:53.642Z,64.10
2019-04-10T19:45:25.943Z,64.30
2019-04-10T19:47:58.915Z,64.30
2019-04-10T19:50:31.523Z,64.10
2019-04-10T19:53:04.930Z,63.90
2019-04-10T19:55:37.914Z,64.10
2019-04-10T19:58:10.769Z,63.90
2019-04-10T20:00:40.934Z,64.30
2019-04-10T20:03:15.383Z,63.70
2019-04-10T20:05:47.727Z,64.00
2019-04-10T20:08:23.787Z,63.90
2019-04-10T20:10:55.056Z,63.60
2019-04-10T20:13:27.337Z,63.80
2019-04-10T20:15:58.646Z,63.80
2019-04-10T20:18:31.410Z,63.70
2019-04-10T20:21:03.800Z,63.90
2019-04-10T20:23:34.752Z,64.20
2019-04-10T20:26:05.130Z,64.20
2019-04-10T20:28:38.782Z,64.00
2019-04-10T20:31:10.692Z,64.00
2019-04-10T20:33:45.160Z,64.40
2019-04-10T20:36:15.158Z,64.40
2019-04-10T20:38:50.500Z,64.40
2019-04-10T20:41:24.730Z,64.40
2019-04-10T20:43:55.876Z,64.20
2019-04-10T20:46:31.172Z,64.20
2019-04-10T20:49:04.729Z,65.00
2019-04-10T20:51:35.872Z,64.10
2019-04-10T20:54:07.069Z,64.10
2019-04-10T20:56:39.529Z,64.00
2019-04-10T20:59:12.032Z,64.30
2019-04-10T21:01:44.830Z,63.90
2019-04-10T21:04:18.897Z,64.00
2019-04-10T21:06:50.104Z,64.00
2019-04-10T21:09:23.629Z,64.40
2019-04-10T21:12:03.859Z,63.70
2019-04-10T21:14:33.770Z,63.50
2019-04-10T21:17:05.313Z,63.60
2019-04-10T21:19:37.564Z,63.50
2019-04-10T21:22:08.922Z,63.70
2019-04-10T21:24:41.353Z,63.10
2019-04-10T21:27:13.964Z,63.20
2019-04-10T21:29:52.786Z,63.10
2019-04-10T21:32:30.363Z,63.30
2019-04-10T21:35:04.004Z,62.70
2019-04-10T21:37:35.377Z,62.90
2019-04-10T21:40:08.077Z,63.70
2019-04-10T21:42:45.354Z,63.20
2019-04-10T21:45:18.023Z,63.80
2019-04-10T21:47:48.160Z,63.40
2019-04-10T21:50:20.080Z,63.60
2019-04-10T21:52:53.762Z,63.30
2019-04-10T21:55:26.866Z,64.20
2019-04-10T21:57:59.596Z,63.90
2019-04-10T22:00:38.790Z,64.40
2019-04-10T22:03:11.212Z,64.20
2019-04-10T22:05:44.544Z,64.50
2019-04-10T22:08:18.747Z,64.20
2019-04-10T22:10:50.980Z,64.00
2019-04-10T22:13:22.086Z,64.10
2019-04-10T22:15:53.271Z,64.00
2019-04-10T22:18:25.301Z,63.90
2019-04-10T22:20:57.221Z,64.50
2019-04-10T22:23:30.687Z,64.20
2019-04-10T22:26:04.281Z,64.00
2019-04-10T22:28:35.478Z,64.40
2019-04-10T22:31:07.639Z,64.40
2019-04-10T22:33:38.504Z,64.30
2019-04-10T22:36:12.875Z,64.10
2019-04-10T22:38:44.222Z,64.50
2019-04-10T22:41:23.578Z,64.00
2019-04-10T22:43:50.490Z,63.80
2019-04-10T22:46:25.805Z,64.70
2019-04-10T22:51:29.707Z,64.30
2019-04-10T22:54:01.831Z,64.20
2019-04-10T22:56:35.731Z,64.40
2019-04-10T22:59:10.074Z,64.20
2019-04-10T23:01:39.894Z,64.40
2019-04-10T23:04:12.520Z,64.90
2019-04-10T23:06:45.725Z,64.40
2019-04-10T23:09:17.192Z,64.40
2019-04-10T23:11:48.330Z,64.50
2019-04-10T23:14:22.679Z,64.20
2019-04-10T23:19:44.633Z,65.00
2019-04-10T23:22:15.069Z,64.50
2019-04-10T23:24:47.582Z,64.40
2019-04-10T23:27:17.805Z,64.70
2019-04-10T23:29:48.605Z,64.80
2019-04-10T23:32:21.464Z,64.70
2019-04-10T23:34:54.749Z,64.60
2019-04-10T23:37:27.424Z,64.70
2019-04-10T23:39:58.703Z,64.70
2019-04-10T23:42:32.350Z,64.60
2019-04-10T23:45:02.591Z,64.80
2019-04-10T23:47:36.071Z,64.90
2019-04-10T23:50:08.127Z,65.20
2019-04-10T23:52:42.243Z,65.00
2019-04-10T23:55:13.701Z,65.20
2019-04-10T23:57:45.318Z,64.70
